createdAt,value
2022-08-10T00:01:54.601Z,5.72
2022-08-10T00:04:24.638Z,4.53
2022-08-10T00:06:55.521Z,4.97
2022-08-10T00:09:24.680Z,3.05
2022-08-10T00:11:52.680Z,5.85
2022-08-10T00:14:21.125Z,5.30
2022-08-10T00:16:49.327Z,3.15
2022-08-10T00:19:18.266Z,4.18
2022-08-10T00:21:47.575Z,3.85
2022-08-10T00:24:15.660Z,3.97
2022-08-10T00:28:01.426Z,3.35
2022-08-10T00:29:32.371Z,3.90
2022-08-10T00:32:00.490Z,6.15
2022-08-10T00:34:29.938Z,5.05
2022-08-10T00:36:58.556Z,4.35
2022-08-10T00:39:28.262Z,6.18
2022-08-10T00:42:02.304Z,4.32
2022-08-10T00:44:39.301Z,6.47
2022-08-10T00:47:36.846Z,5.40
2022-08-10T00:49:59.895Z,5.28
2022-08-10T00:52:31.175Z,3.95
2022-08-10T00:57:27.693Z,5.25
2022-08-10T00:59:59.252Z,5.65
2022-08-10T01:02:33.369Z,6.93
2022-08-10T01:05:07.280Z,4.43
2022-08-10T01:07:50.948Z,3.50
2022-08-10T01:10:27.877Z,5.00
2022-08-10T01:13:08.133Z,4.95
2022-08-10T01:15:51.661Z,6.47
2022-08-10T01:18:43.660Z,3.83
2022-08-10T01:21:30.449Z,6.88
2022-08-10T01:24:51.158Z,4.47
2022-08-10T01:27:43.444Z,6.60
2022-08-10T01:30:13.344Z,8.18
2022-08-10T01:32:58.793Z,4.05
2022-08-10T01:35:29.471Z,3.97
2022-08-10T01:38:06.412Z,4.93
2022-08-10T01:40:39.599Z,4.85
2022-08-10T01:43:11.198Z,5.15
2022-08-10T01:45:45.209Z,4.50
2022-08-10T01:48:32.217Z,6.07
2022-08-10T01:51:18.609Z,7.47
2022-08-10T01:53:57.607Z,6.65
2022-08-10T01:56:29.331Z,5.63
2022-08-10T01:59:01.081Z,3.85
2022-08-10T02:01:39.082Z,3.30
2022-08-10T02:04:14.229Z,5.38
2022-08-10T02:06:47.320Z,5.22
2022-08-10T02:09:19.613Z,6.90
2022-08-10T02:12:05.300Z,6.53
2022-08-10T02:14:44.026Z,7.22
2022-08-10T02:17:57.294Z,6.65
2022-08-10T02:20:18.252Z,8.15
2022-08-10T02:22:48.665Z,6.57
2022-08-10T02:25:39.875Z,8.13
2022-08-10T02:28:08.335Z,6.72
2022-08-10T02:30:38.071Z,6.30
2022-08-10T02:33:07.550Z,5.13
2022-08-10T02:35:42.161Z,8.55
2022-08-10T02:38:57.466Z,8.82
2022-08-10T02:45:13.074Z,6.35
2022-08-10T02:45:18.213Z,5.68
2022-08-10T02:47:52.238Z,5.18
2022-08-10T02:50:30.684Z,4.65
2022-08-10T02:53:04.425Z,4.63
2022-08-10T02:55:50.576Z,6.03
2022-08-10T02:58:26.818Z,5.18
2022-08-10T03:00:57.646Z,4.80
2022-08-10T03:03:31.353Z,4.57
2022-08-10T03:06:09.560Z,5.97
2022-08-10T03:08:43.153Z,10.05
2022-08-10T03:12:35.559Z,4.22
2022-08-10T03:14:16.175Z,6.25
2022-08-10T03:16:45.233Z,9.93
2022-08-10T03:20:34.626Z,7.85
2022-08-10T03:22:04.964Z,5.93
2022-08-10T03:24:34.471Z,6.65
2022-08-10T03:27:04.295Z,5.03
2022-08-10T03:30:29.468Z,6.75
2022-08-10T03:32:29.414Z,7.97
2022-08-10T03:35:02.328Z,8.05
2022-08-10T03:37:30.541Z,5.40
2022-08-10T03:39:58.797Z,7.95
2022-08-10T03:42:29.103Z,6.10
2022-08-10T03:44:59.065Z,8.38
2022-08-10T03:47:30.468Z,7.57
2022-08-10T03:52:47.471Z,10.50
2022-08-10T03:56:29.237Z,8.77
2022-08-10T03:58:05.180Z,5.78
2022-08-10T04:00:37.048Z,8.52
2022-08-10T04:03:08.949Z,8.45
2022-08-10T04:05:40.355Z,8.38
2022-08-10T04:08:08.971Z,4.97
2022-08-10T04:10:36.957Z,6.10
2022-08-10T04:13:04.978Z,6.80
2022-08-10T04:15:33.051Z,7.38
2022-08-10T04:18:05.444Z,7.10
2022-08-10T04:20:49.246Z,15.15
2022-08-10T04:23:24.359Z,10.35
2022-08-10T04:25:53.275Z,6.82
2022-08-10T04:28:21.354Z,8.50
2022-08-10T04:30:52.516Z,7.22
2022-08-10T04:33:23.767Z,7.50
2022-08-10T04:35:53.287Z,9.80
2022-08-10T04:38:22.883Z,6.60
2022-08-10T04:40:51.094Z,5.50
2022-08-10T04:43:19.662Z,7.05
2022-08-10T04:45:51.761Z,5.65
2022-08-10T04:48:41.575Z,8.10
2022-08-10T04:51:19.429Z,12.65
2022-08-10T04:54:05.578Z,6.32
2022-08-10T04:56:39.800Z,7.32
2022-08-10T04:59:10.428Z,5.45
2022-08-10T05:02:29.093Z,11.33
2022-08-10T05:04:36.055Z,11.32
2022-08-10T05:07:18.196Z,6.25
2022-08-10T05:10:04.695Z,16.30
2022-08-10T05:12:37.643Z,8.93
2022-08-10T05:15:13.898Z,9.43
2022-08-10T05:18:08.361Z,7.53
2022-08-10T05:20:35.394Z,7.15
2022-08-10T05:23:03.373Z,11.88
2022-08-10T05:25:32.809Z,6.68
2022-08-10T05:28:06.962Z,3.53
2022-08-10T05:30:36.039Z,6.82
2022-08-10T05:33:08.667Z,4.55
2022-08-10T05:35:57.782Z,4.97
2022-08-10T05:38:28.885Z,4.25
2022-08-10T05:40:58.833Z,4.72
2022-08-10T05:43:30.176Z,4.78
2022-08-10T05:48:57.500Z,5.82
2022-08-10T05:51:30.016Z,12.93
2022-08-10T05:54:06.778Z,10.60
2022-08-10T05:56:56.612Z,7.22
2022-08-10T06:00:37.349Z,5.88
2022-08-10T06:03:29.035Z,4.50
2022-08-10T06:06:05.924Z,5.60
2022-08-10T06:18:36.260Z,9.20
2022-08-10T06:21:09.094Z,3.85
2022-08-10T06:23:39.129Z,6.57
2022-08-10T06:26:13.828Z,6.68
2022-08-10T06:29:03.646Z,9.15
2022-08-10T06:31:46.904Z,5.55
2022-08-10T06:34:29.147Z,3.97
2022-08-10T06:37:00.043Z,5.68
2022-08-10T06:39:34.215Z,3.60
2022-08-10T06:42:24.423Z,9.80
2022-08-10T06:45:11.253Z,5.00
2022-08-10T06:48:32.696Z,5.03
2022-08-10T06:51:05.256Z,7.03
2022-08-10T06:53:52.260Z,3.80
2022-08-10T06:56:36.708Z,6.65
2022-08-10T06:59:42.682Z,8.13
2022-08-10T07:02:16.895Z,6.20
2022-08-10T07:04:56.237Z,6.35
2022-08-10T07:07:28.339Z,2.83
2022-08-10T07:09:58.588Z,6.38
2022-08-10T07:12:27.723Z,5.55
2022-08-10T07:14:58.043Z,10.30
2022-08-10T07:17:28.291Z,6.72
2022-08-10T07:20:00.927Z,6.60
2022-08-10T07:23:22.869Z,3.83
2022-08-10T07:25:23.403Z,7.63
2022-08-10T07:27:59.597Z,3.33
2022-08-10T07:30:33.415Z,3.17
2022-08-10T07:33:03.445Z,4.13
2022-08-10T07:35:42.308Z,2.45
2022-08-10T07:38:26.695Z,2.78
2022-08-10T07:40:55.699Z,4.63
2022-08-10T07:43:26.795Z,6.07
2022-08-10T07:45:56.737Z,6.05
2022-08-10T07:48:30.676Z,2.22
2022-08-10T07:51:03.062Z,4.10
2022-08-10T07:53:36.645Z,3.15
2022-08-10T07:56:20.972Z,3.92
2022-08-10T07:59:08.900Z,3.30
2022-08-10T08:01:42.224Z,2.60
2022-08-10T08:04:13.359Z,3.65
2022-08-10T08:06:43.587Z,4.13
2022-08-10T08:09:12.546Z,2.50
2022-08-10T08:11:46.166Z,4.63
2022-08-10T08:14:16.909Z,8.43
2022-08-10T08:19:37.867Z,2.83
2022-08-10T08:24:09.313Z,3.20
2022-08-10T08:24:58.399Z,6.05
2022-08-10T08:27:28.537Z,2.75
2022-08-10T08:29:56.872Z,2.83
2022-08-10T08:32:30.597Z,2.67
2022-08-10T08:35:05.658Z,4.50
2022-08-10T08:38:32.593Z,3.60
2022-08-10T08:40:30.318Z,2.30
2022-08-10T08:43:56.495Z,2.40
2022-08-10T08:46:58.786Z,6.60
2022-08-10T08:50:09.705Z,5.13
2022-08-10T08:52:59.883Z,3.45
2022-08-10T08:56:03.783Z,3.42
2022-08-10T08:58:33.692Z,4.57
2022-08-10T09:01:38.282Z,3.38
2022-08-10T09:04:21.067Z,1.60
2022-08-10T09:10:30.340Z,10.75
2022-08-10T09:13:15.114Z,4.38
2022-08-10T09:16:00.162Z,5.35
2022-08-10T09:18:50.904Z,5.47
2022-08-10T09:21:23.283Z,5.27
2022-08-10T09:24:23.124Z,5.05
2022-08-10T09:26:53.047Z,6.72
2022-08-10T09:29:46.224Z,2.50
2022-08-10T09:36:14.794Z,4.50
2022-08-10T09:36:24.600Z,1.65
2022-08-10T09:39:00.108Z,3.35
2022-08-10T09:41:48.240Z,12.57
2022-08-10T09:44:58.081Z,5.68
2022-08-10T09:48:05.292Z,7.85
2022-08-10T09:51:34.955Z,3.83
2022-08-10T09:54:20.347Z,3.90
2022-08-10T09:57:24.451Z,2.63
2022-08-10T10:00:03.352Z,3.42
2022-08-10T10:03:01.754Z,2.85
2022-08-10T10:05:55.876Z,2.97
2022-08-10T10:08:58.490Z,1.92
2022-08-10T10:12:09.943Z,5.15
2022-08-10T10:15:24.736Z,3.67
2022-08-10T10:18:21.287Z,4.25
2022-08-10T10:21:24.227Z,5.05
2022-08-10T10:24:21.842Z,2.88
2022-08-10T10:26:58.603Z,3.53
2022-08-10T10:29:59.260Z,2.47
2022-08-10T10:33:08.886Z,4.35
2022-08-10T10:35:55.969Z,5.15
2022-08-10T10:38:30.803Z,4.55
2022-08-10T10:41:17.340Z,8.55
2022-08-10T10:44:09.156Z,3.13
2022-08-10T10:47:20.954Z,4.90
2022-08-10T10:50:07.368Z,3.17
2022-08-10T10:52:56.504Z,5.25
2022-08-10T10:56:15.007Z,3.15
2022-08-10T10:59:02.063Z,3.80
2022-08-10T11:02:28.654Z,5.07
2022-08-10T11:05:21.562Z,7.18
2022-08-10T11:08:02.082Z,5.60
2022-08-10T11:10:52.849Z,5.75
2022-08-10T11:14:25.481Z,2.33
2022-08-10T11:16:57.640Z,1.58
2022-08-10T11:20:01.771Z,2.70
2022-08-10T11:22:36.672Z,2.58
2022-08-10T11:25:19.562Z,2.85
2022-08-10T11:28:13.930Z,7.55
2022-08-10T11:31:00.239Z,3.05
2022-08-10T11:37:19.574Z,4.82
2022-08-10T11:40:00.386Z,2.45
2022-08-10T11:42:44.421Z,2.60
2022-08-10T11:45:52.154Z,7.25
2022-08-10T11:48:53.209Z,2.88
2022-08-10T11:51:35.894Z,3.23
2022-08-10T11:54:11.955Z,2.40
2022-08-10T11:56:51.551Z,4.15
2022-08-10T11:59:40.986Z,3.58
2022-08-10T12:02:11.444Z,5.45
2022-08-10T12:04:43.081Z,8.13
2022-08-10T12:08:55.008Z,4.53
2022-08-10T12:10:11.563Z,3.67
2022-08-10T12:15:33.100Z,3.67
2022-08-10T12:18:08.174Z,5.88
2022-08-10T12:20:38.788Z,6.65
2022-08-10T12:23:18.443Z,3.85
2022-08-10T12:25:59.456Z,4.85
2022-08-10T12:31:43.272Z,4.22
2022-08-10T12:34:15.611Z,5.30
2022-08-10T12:36:48.719Z,5.97
2022-08-10T12:39:34.076Z,3.42
2022-08-10T12:42:38.769Z,4.82
2022-08-10T12:45:07.351Z,6.10
2022-08-10T12:48:48.667Z,4.85
2022-08-10T12:53:56.689Z,2.13
2022-08-10T12:56:31.301Z,1.60
2022-08-10T12:59:01.777Z,3.75
2022-08-10T13:02:06.964Z,3.60
2022-08-10T13:04:47.036Z,4.32
2022-08-10T13:08:24.492Z,3.40
2022-08-10T13:10:17.603Z,7.68
2022-08-10T13:12:50.137Z,2.42
2022-08-10T13:15:49.615Z,3.92
2022-08-10T13:18:25.951Z,4.25
2022-08-10T13:20:56.377Z,4.25
2022-08-10T13:23:30.820Z,3.95
2022-08-10T13:26:01.983Z,6.22
2022-08-10T13:28:45.888Z,1.85
2022-08-10T13:32:03.791Z,6.25
2022-08-10T13:34:43.921Z,3.93
2022-08-10T13:37:16.676Z,3.28
2022-08-10T13:39:59.547Z,4.53
2022-08-10T13:42:38.394Z,4.53
2022-08-10T13:45:40.675Z,1.67
2022-08-10T13:48:22.678Z,2.53
2022-08-10T13:50:57.465Z,5.20
2022-08-10T13:53:36.191Z,1.60
2022-08-10T13:56:06.435Z,1.38
2022-08-10T13:58:42.576Z,2.95
2022-08-10T14:01:14.824Z,2.08
2022-08-10T14:03:45.284Z,1.35
2022-08-10T14:06:16.526Z,3.55
2022-08-10T14:09:03.966Z,4.03
2022-08-10T14:11:32.561Z,2.42
2022-08-10T14:14:06.811Z,2.67
2022-08-10T14:16:36.020Z,4.15
2022-08-10T14:19:20.965Z,4.40
2022-08-10T14:21:50.993Z,4.25
2022-08-10T14:24:31.301Z,3.33
2022-08-10T14:27:05.345Z,4.85
2022-08-10T14:29:40.402Z,6.28
2022-08-10T14:32:10.211Z,3.25
2022-08-10T14:36:15.346Z,3.28
2022-08-10T14:37:38.123Z,2.70
2022-08-10T14:40:12.643Z,5.13
2022-08-10T14:43:08.033Z,3.45
2022-08-10T14:45:38.883Z,5.22
2022-08-10T14:50:55.773Z,6.10
2022-08-10T14:53:27.345Z,5.93
2022-08-10T14:56:13.654Z,5.55
2022-08-10T14:59:05.507Z,1.95
2022-08-10T15:02:00.128Z,3.05
2022-08-10T15:04:29.298Z,3.10
2022-08-10T15:07:11.834Z,1.40
2022-08-10T15:10:01.369Z,2.92
2022-08-10T15:12:38.720Z,6.15
2022-08-10T15:15:11.131Z,2.55
2022-08-10T15:17:52.916Z,3.05
2022-08-10T15:20:24.661Z,3.38
2022-08-10T15:23:05.187Z,3.00
2022-08-10T15:25:36.445Z,2.20
2022-08-10T15:28:07.386Z,2.05
2022-08-10T15:30:47.593Z,2.85
2022-08-10T15:34:02.557Z,3.80
2022-08-10T15:36:58.789Z,2.67
2022-08-10T15:40:22.577Z,2.90
2022-08-10T15:43:24.920Z,3.67
2022-08-10T15:46:04.227Z,3.67
2022-08-10T15:48:48.272Z,4.47
2022-08-10T15:51:33.716Z,3.05
2022-08-10T15:54:19.248Z,3.63
2022-08-10T15:57:05.221Z,5.00
2022-08-10T15:59:48.755Z,10.23
2022-08-10T16:02:27.786Z,2.42
2022-08-10T16:05:01.599Z,6.10
2022-08-10T16:07:57.414Z,2.17
2022-08-10T16:10:35.380Z,1.30
2022-08-10T16:13:59.834Z,2.42
2022-08-10T16:16:06.973Z,7.40
2022-08-10T16:18:40.041Z,4.97
2022-08-10T16:21:25.029Z,5.63
2022-08-10T16:24:14.837Z,8.82
2022-08-10T16:26:52.632Z,9.27
2022-08-10T16:29:26.846Z,5.15
2022-08-10T16:32:01.041Z,4.47
2022-08-10T16:34:31.578Z,3.83
2022-08-10T16:37:05.059Z,2.35
2022-08-10T16:39:59.840Z,3.72
2022-08-10T16:42:33.287Z,2.70
2022-08-10T16:45:14.347Z,3.40
2022-08-10T16:47:50.935Z,2.58
2022-08-10T16:50:33.962Z,6.20
2022-08-10T16:53:04.262Z,7.13
2022-08-10T16:55:48.320Z,4.25
2022-08-10T16:58:26.016Z,6.15
2022-08-10T17:00:58.789Z,11.80
2022-08-10T17:04:05.555Z,9.88
2022-08-10T17:06:29.544Z,4.53
2022-08-10T17:09:00.833Z,6.50
2022-08-10T17:11:32.712Z,9.90
2022-08-10T17:14:02.954Z,12.80
2022-08-10T17:16:39.876Z,8.93
2022-08-10T17:19:18.080Z,7.78
2022-08-10T17:22:03.368Z,11.90
2022-08-10T17:24:36.153Z,8.40
2022-08-10T17:28:05.377Z,8.25
2022-08-10T17:30:04.722Z,5.13
2022-08-10T17:32:58.062Z,6.03
2022-08-10T17:35:29.838Z,5.13
2022-08-10T17:38:12.140Z,25.38
2022-08-10T17:40:50.907Z,23.13
2022-08-10T17:43:58.515Z,19.15
2022-08-10T17:46:19.867Z,13.85
2022-08-10T17:48:48.807Z,7.47
2022-08-10T17:51:17.803Z,5.38
2022-08-10T17:53:52.390Z,7.70
2022-08-10T17:56:22.207Z,12.60
2022-08-10T17:58:58.766Z,14.60
2022-08-10T18:01:41.644Z,14.68
2022-08-10T18:04:22.040Z,6.63
2022-08-10T18:06:59.857Z,5.55
2022-08-10T18:09:36.854Z,5.47
2022-08-10T18:12:18.685Z,3.17
2022-08-10T18:14:50.374Z,3.67
2022-08-10T18:17:24.488Z,4.72
2022-08-10T18:19:55.647Z,1.95
2022-08-10T18:22:25.951Z,7.03
2022-08-10T18:24:57.007Z,8.37
2022-08-10T18:28:01.443Z,15.25
2022-08-10T18:30:16.786Z,8.52
2022-08-10T18:32:52.826Z,12.82
2022-08-10T18:35:21.683Z,13.18
2022-08-10T18:37:54.756Z,23.33
2022-08-10T18:40:36.366Z,35.97
2022-08-10T18:44:06.777Z,20.90
2022-08-10T18:48:34.166Z,27.98
2022-08-10T18:51:06.436Z,19.05
2022-08-10T18:53:49.022Z,21.17
2022-08-10T18:56:37.852Z,7.38
2022-08-10T19:00:07.545Z,8.35
2022-08-10T19:02:42.668Z,4.22
2022-08-10T19:05:34.408Z,3.90
2022-08-10T19:08:31.309Z,6.22
2022-08-10T19:11:12.619Z,7.03
2022-08-10T19:14:13.509Z,4.18
2022-08-10T19:17:00.464Z,4.00
2022-08-10T19:19:57.066Z,4.53
2022-08-10T19:22:56.322Z,5.20
2022-08-10T19:26:41.044Z,5.45
2022-08-10T19:29:08.744Z,7.85
2022-08-10T19:31:51.033Z,4.82
2022-08-10T19:34:55.885Z,3.83
2022-08-10T19:38:00.522Z,4.35
2022-08-10T19:40:44.258Z,4.05
2022-08-10T19:43:59.283Z,5.13
2022-08-10T19:46:12.173Z,6.57
2022-08-10T19:49:02.243Z,6.40
2022-08-10T19:51:52.718Z,3.10
2022-08-10T19:54:43.702Z,2.90
2022-08-10T19:57:47.495Z,5.65
2022-08-10T20:00:22.914Z,2.65
2022-08-10T20:03:14.271Z,4.13
2022-08-10T20:06:13.355Z,7.75
2022-08-10T20:09:07.801Z,4.90
2022-08-10T20:11:47.199Z,5.32
2022-08-10T20:14:31.586Z,3.03
2022-08-10T20:17:11.867Z,3.95
2022-08-10T20:19:54.815Z,3.03
2022-08-10T20:22:34.783Z,9.55
2022-08-10T20:25:08.853Z,6.00
2022-08-10T20:28:00.913Z,3.53
2022-08-10T20:30:34.170Z,7.68
2022-08-10T20:33:31.454Z,6.32
2022-08-10T20:36:11.996Z,5.47
2022-08-10T20:39:10.529Z,4.83
2022-08-10T20:42:23.170Z,4.90
2022-08-10T20:45:11.432Z,6.15
2022-08-10T20:47:57.315Z,2.65
2022-08-10T20:50:38.321Z,6.28
2022-08-10T20:53:13.363Z,5.18
2022-08-10T20:55:53.440Z,3.90
2022-08-10T20:58:27.939Z,6.03
2022-08-10T21:01:16.980Z,5.75
2022-08-10T21:04:04.189Z,4.80
2022-08-10T21:06:57.531Z,4.10
2022-08-10T21:10:09.730Z,4.72
2022-08-10T21:13:35.271Z,7.40
2022-08-10T21:16:27.694Z,6.60
2022-08-10T21:19:11.915Z,3.60
2022-08-10T21:22:01.372Z,4.50
2022-08-10T21:24:36.953Z,6.40
2022-08-10T21:27:42.485Z,6.45
2022-08-10T21:30:36.617Z,5.03
2022-08-10T21:33:15.974Z,7.13
2022-08-10T21:35:53.787Z,6.07
2022-08-10T21:39:06.672Z,4.18
2022-08-10T21:42:17.144Z,5.18
2022-08-10T21:45:18.095Z,4.72
2022-08-10T21:48:42.103Z,3.38
2022-08-10T21:52:02.090Z,5.20
2022-08-10T21:55:04.323Z,4.90
2022-08-10T21:58:16.167Z,3.47
2022-08-10T22:01:15.778Z,5.03
2022-08-10T22:04:03.588Z,5.20
2022-08-10T22:06:53.762Z,4.95
2022-08-10T22:09:49.466Z,5.65
2022-08-10T22:12:46.858Z,3.45
2022-08-10T22:16:11.170Z,7.07
2022-08-10T22:19:03.479Z,5.38
2022-08-10T22:22:05.315Z,4.72
2022-08-10T22:25:04.536Z,4.93
2022-08-10T22:28:03.094Z,4.90
2022-08-10T22:31:22.835Z,5.25
2022-08-10T22:34:26.627Z,5.18
2022-08-10T22:37:52.008Z,5.07
2022-08-10T22:40:44.068Z,3.67
2022-08-10T22:43:41.390Z,4.97
2022-08-10T22:46:37.560Z,5.43
2022-08-10T22:49:06.110Z,3.65
2022-08-10T22:51:49.496Z,6.00
2022-08-10T22:55:09.540Z,5.28
2022-08-10T22:58:04.468Z,3.75
2022-08-10T23:00:33.679Z,4.20
2022-08-10T23:03:04.453Z,4.03
2022-08-10T23:05:39.943Z,5.43
2022-08-10T23:08:30.542Z,3.60
2022-08-10T23:11:07.404Z,5.22
2022-08-10T23:13:41.652Z,6.13
2022-08-10T23:16:37.954Z,6.53
2022-08-10T23:19:26.882Z,4.18
2022-08-10T23:22:10.619Z,7.30
2022-08-10T23:24:41.391Z,4.32
2022-08-10T23:27:38.628Z,3.08
2022-08-10T23:32:45.354Z,4.95
2022-08-10T23:36:29.597Z,4.82
2022-08-10T23:38:04.628Z,4.10
2022-08-10T23:40:34.469Z,5.13
2022-08-10T23:43:03.984Z,3.90
2022-08-10T23:45:52.985Z,7.68
2022-08-10T23:48:48.034Z,14.65
2022-08-10T23:51:20.855Z,7.13
2022-08-10T23:53:52.752Z,4.80
2022-08-10T23:56:23.229Z,4.18
2022-08-10T23:58:54.938Z,7.10
